KEWR

Newark Liberty International Airport

Newark, New Jersey, USA
METAR KEWR 190251Z 29008KT 10SM CLR M03/M11 A3010 RMK AO2 SLP190 T10281111 53020
Observed Flight Rules
Jan-19 @ 02:51 UTC (59 minutes ago) Visual Flight Rules
Wind Visibility Clouds
290° at 8 knots 10 miles
  • Clear skies
Temperatures Readings
Current -3°C / 27°F
Dewpoint -11°C / 12°F
Humidity 54%
Altimeter 30.1" Hg
Pressure 1019 hPa
Elevation 7
METAR KEWR 190251Z 29008KT 10SM CLR M03/M11 A3010 RMK AO2 SLP190 T10281111 53020
Observed Flight Rules
Jan-19 @ 02:51 UTC
(59 minutes ago)
VFR
Wind Visibility
290° at 8 knots 10 miles
Clouds
  • Clear skies
Temperature Dewpoint
-3°C / 27°F -11°C / 12°F
Humidity Altimeter Pressure
54% 30.1" Hg 1019 hPa